createdAt,value
2024-02-23T00:01:29.563Z,40.90
2024-02-23T00:03:59.823Z,38.20
2024-02-23T00:06:29.556Z,37.47
2024-02-23T00:08:57.082Z,36.80
2024-02-23T00:11:25.224Z,34.33
2024-02-23T00:13:52.372Z,32.65
2024-02-23T00:16:19.898Z,32.17
2024-02-23T00:18:47.227Z,33.15
2024-02-23T00:21:14.334Z,33.38
2024-02-23T00:23:41.504Z,31.83
2024-02-23T00:26:08.770Z,32.03
2024-02-23T00:28:36.411Z,32.33
2024-02-23T00:31:03.650Z,31.80
2024-02-23T00:33:30.816Z,32.20
2024-02-23T00:35:58.062Z,29.98
2024-02-23T00:38:25.346Z,32.80
2024-02-23T00:40:52.734Z,33.17
2024-02-23T00:43:21.241Z,28.92
2024-02-23T00:45:48.709Z,32.55
2024-02-23T00:48:15.924Z,32.92
2024-02-23T00:50:43.204Z,32.72
2024-02-23T00:53:10.357Z,33.83
2024-02-23T00:55:37.993Z,33.10
2024-02-23T00:58:05.541Z,34.50
2024-02-23T01:00:32.664Z,34.30
2024-02-23T01:03:01.415Z,34.17
2024-02-23T01:05:28.561Z,43.33
2024-02-23T01:07:56.689Z,34.53
2024-02-23T01:10:23.767Z,38.75
2024-02-23T01:12:51.183Z,40.90
2024-02-23T01:15:19.125Z,35.50
2024-02-23T01:17:47.004Z,35.10
2024-02-23T01:20:14.911Z,39.97
2024-02-23T01:22:42.662Z,37.35
2024-02-23T01:25:09.829Z,32.83
2024-02-23T01:27:37.292Z,33.40
2024-02-23T01:30:05.143Z,33.97
2024-02-23T01:32:32.591Z,32.60
2024-02-23T01:34:59.969Z,34.47
2024-02-23T01:37:27.522Z,34.38
2024-02-23T01:39:54.553Z,33.23
2024-02-23T01:42:22.306Z,32.07
2024-02-23T01:44:49.354Z,32.20
2024-02-23T01:47:17.172Z,32.05
2024-02-23T01:49:46.671Z,30.85
2024-02-23T01:52:15.503Z,31.88
2024-02-23T01:54:42.769Z,32.22
2024-02-23T01:57:23.546Z,32.05
2024-02-23T01:59:58.065Z,33.30
2024-02-23T02:02:25.868Z,34.90
2024-02-23T02:04:53.294Z,34.35
2024-02-23T02:07:21.734Z,36.20
2024-02-23T02:09:51.982Z,33.97
2024-02-23T02:12:30.453Z,34.55
2024-02-23T02:14:58.092Z,35.10
2024-02-23T02:17:25.213Z,33.50
2024-02-23T02:19:53.970Z,33.17
2024-02-23T02:22:21.146Z,33.67
2024-02-23T02:24:49.704Z,29.60
2024-02-23T02:27:16.874Z,28.55
2024-02-23T02:29:44.565Z,26.60
2024-02-23T02:32:11.844Z,26.33
2024-02-23T02:34:39.362Z,25.88
2024-02-23T02:37:07.322Z,24.58
2024-02-23T02:39:35.219Z,29.58
2024-02-23T02:42:02.255Z,32.22
2024-02-23T02:44:32.136Z,31.63
2024-02-23T02:46:59.400Z,33.50
2024-02-23T02:49:26.782Z,35.08
2024-02-23T02:51:54.897Z,32.57
2024-02-23T02:54:22.646Z,32.95
2024-02-23T02:56:51.980Z,33.85
2024-02-23T02:59:20.151Z,33.38
2024-02-23T03:01:48.365Z,33.90
2024-02-23T03:04:16.228Z,31.73
2024-02-23T03:06:43.410Z,35.35
2024-02-23T03:09:10.995Z,28.65
2024-02-23T03:11:39.473Z,30.95
2024-02-23T03:14:06.943Z,33.80
2024-02-23T03:16:35.672Z,30.97
2024-02-23T03:19:03.194Z,33.13
2024-02-23T03:21:30.613Z,33.30
2024-02-23T03:23:58.118Z,33.53
2024-02-23T03:26:25.250Z,31.92
2024-02-23T03:28:52.811Z,35.60
2024-02-23T03:31:20.056Z,30.73
2024-02-23T03:33:47.566Z,31.33
2024-02-23T03:36:14.678Z,32.50
2024-02-23T03:38:42.391Z,30.20
2024-02-23T03:41:09.500Z,29.55
2024-02-23T03:43:39.589Z,30.42
2024-02-23T03:46:08.041Z,28.67
2024-02-23T03:48:35.876Z,28.77
2024-02-23T03:51:05.481Z,29.43
2024-02-23T03:53:32.909Z,29.25
2024-02-23T03:56:00.188Z,30.55
2024-02-23T03:58:27.756Z,30.50
2024-02-23T04:00:54.810Z,29.38
2024-02-23T04:03:22.155Z,29.58
2024-02-23T04:05:49.433Z,28.88
2024-02-23T04:08:17.841Z,29.92
2024-02-23T04:10:45.231Z,29.88
2024-02-23T04:13:15.114Z,28.98
2024-02-23T04:15:42.703Z,28.65
2024-02-23T04:18:10.140Z,28.35
2024-02-23T04:20:37.752Z,29.95
2024-02-23T04:23:05.035Z,29.73
2024-02-23T04:25:32.617Z,30.98
2024-02-23T04:28:00.195Z,31.27
2024-02-23T04:30:27.739Z,31.95
2024-02-23T04:32:54.835Z,30.95
2024-02-23T04:35:22.483Z,33.15
2024-02-23T04:37:51.091Z,31.07
2024-02-23T04:40:18.613Z,32.00
2024-02-23T04:42:47.128Z,32.08
2024-02-23T04:45:14.949Z,31.83
2024-02-23T04:47:42.212Z,31.58
2024-02-23T04:50:10.480Z,27.88
2024-02-23T04:52:37.981Z,19.10
2024-02-23T04:55:06.190Z,21.85
2024-02-23T04:57:33.772Z,24.07
2024-02-23T05:00:01.377Z,28.05
2024-02-23T05:02:31.060Z,29.83
2024-02-23T05:04:59.155Z,28.83
2024-02-23T05:07:26.269Z,29.88
2024-02-23T05:09:53.602Z,30.05
2024-02-23T05:12:20.849Z,29.90
2024-02-23T05:14:48.092Z,32.53
2024-02-23T05:17:15.221Z,32.58
2024-02-23T05:19:43.192Z,31.90
2024-02-23T05:22:10.294Z,30.02
2024-02-23T05:24:37.645Z,30.10
2024-02-23T05:27:05.128Z,29.60
2024-02-23T05:29:33.581Z,28.98
2024-02-23T05:32:00.650Z,30.00
2024-02-23T05:34:27.999Z,28.90
2024-02-23T05:36:55.652Z,29.43
2024-02-23T05:39:23.327Z,29.23
2024-02-23T05:41:51.344Z,28.60
2024-02-23T05:44:19.047Z,29.67
2024-02-23T05:46:46.184Z,28.77
2024-02-23T05:49:14.081Z,29.80
2024-02-23T05:51:41.272Z,27.33
2024-02-23T05:54:09.812Z,28.67
2024-02-23T05:56:38.376Z,28.95
2024-02-23T05:59:05.798Z,28.52
2024-02-23T06:01:33.292Z,29.48
2024-02-23T06:04:01.226Z,29.50
2024-02-23T06:06:28.694Z,30.65
2024-02-23T06:08:56.144Z,27.25
2024-02-23T06:11:23.321Z,29.15
2024-02-23T06:13:50.556Z,29.08
2024-02-23T06:16:17.696Z,30.25
2024-02-23T06:18:45.283Z,31.08
2024-02-23T06:21:19.468Z,32.50
2024-02-23T06:23:46.710Z,31.42
2024-02-23T06:26:13.906Z,30.25
2024-02-23T06:28:43.272Z,28.08
2024-02-23T06:31:11.458Z,30.08
2024-02-23T06:33:38.757Z,30.63
2024-02-23T06:36:06.506Z,32.05
2024-02-23T06:38:34.390Z,30.75
2024-02-23T06:41:01.976Z,31.25
2024-02-23T06:43:29.502Z,32.67
2024-02-23T06:45:56.805Z,30.23
2024-02-23T06:48:28.618Z,32.17
2024-02-23T06:50:59.097Z,33.40
2024-02-23T06:53:26.255Z,32.67
2024-02-23T06:55:53.550Z,30.25
2024-02-23T06:58:20.746Z,29.65
2024-02-23T07:00:48.012Z,27.48
2024-02-23T07:03:15.818Z,28.43
2024-02-23T07:05:47.138Z,27.33
2024-02-23T07:08:14.891Z,27.42
2024-02-23T07:10:42.266Z,28.65
2024-02-23T07:13:10.262Z,28.30
2024-02-23T07:15:37.813Z,28.73
2024-02-23T07:18:06.097Z,28.60
2024-02-23T07:20:33.286Z,29.05
2024-02-23T07:23:01.501Z,30.40
2024-02-23T07:25:28.578Z,30.15
2024-02-23T07:27:56.051Z,29.50
2024-02-23T07:30:24.986Z,30.55
2024-02-23T07:32:53.594Z,34.50
2024-02-23T07:35:21.508Z,32.33
2024-02-23T07:37:49.923Z,31.15
2024-02-23T07:40:19.377Z,29.77
2024-02-23T07:42:48.815Z,29.30
2024-02-23T07:45:16.234Z,29.17
2024-02-23T07:47:44.003Z,30.35
2024-02-23T07:50:11.413Z,30.13
2024-02-23T07:52:40.286Z,29.33
2024-02-23T07:55:07.908Z,29.30
2024-02-23T07:57:36.531Z,29.20
2024-02-23T08:00:04.480Z,29.35
2024-02-23T08:02:39.954Z,28.83
2024-02-23T08:05:09.204Z,28.67
2024-02-23T08:07:36.546Z,28.95
2024-02-23T08:10:06.709Z,28.75
2024-02-23T08:12:35.846Z,29.15
2024-02-23T08:15:05.088Z,29.33
2024-02-23T08:17:32.431Z,29.23
2024-02-23T08:20:00.052Z,29.77
2024-02-23T08:22:27.453Z,30.35
2024-02-23T08:24:54.904Z,29.42
2024-02-23T08:27:22.007Z,29.38
2024-02-23T08:29:50.349Z,28.15
2024-02-23T08:32:18.953Z,25.70
2024-02-23T08:34:46.521Z,26.65
2024-02-23T08:37:14.092Z,25.92
2024-02-23T08:39:41.437Z,23.17
2024-02-23T08:42:08.563Z,22.45
2024-02-23T08:44:36.908Z,21.58
2024-02-23T08:47:04.093Z,21.30
2024-02-23T08:49:31.672Z,21.85
2024-02-23T08:52:00.101Z,21.17
2024-02-23T08:54:27.682Z,21.70
2024-02-23T08:56:54.970Z,20.90
2024-02-23T08:59:25.387Z,21.70
2024-02-23T09:01:52.660Z,22.88
2024-02-23T09:04:20.486Z,22.25
2024-02-23T09:06:48.057Z,22.37
2024-02-23T09:09:15.700Z,21.95
2024-02-23T09:11:43.045Z,20.98
2024-02-23T09:14:10.540Z,21.27
2024-02-23T09:16:38.085Z,20.90
2024-02-23T09:19:06.439Z,21.60
2024-02-23T09:21:34.699Z,20.30
2024-02-23T09:24:01.958Z,21.67
2024-02-23T09:26:29.076Z,20.55
2024-02-23T09:28:57.022Z,20.23
2024-02-23T09:31:24.143Z,19.83
2024-02-23T09:33:52.964Z,20.60
2024-02-23T09:36:20.172Z,20.38
2024-02-23T09:38:49.605Z,20.35
2024-02-23T09:41:21.662Z,20.05
2024-02-23T09:43:54.046Z,19.70
2024-02-23T09:46:21.304Z,20.30
2024-02-23T09:48:50.311Z,19.20
2024-02-23T09:51:17.931Z,19.13
2024-02-23T09:53:45.503Z,20.08
2024-02-23T09:56:12.819Z,19.53
2024-02-23T09:58:43.035Z,19.15
2024-02-23T10:01:13.282Z,19.20
2024-02-23T10:03:40.924Z,18.80
2024-02-23T10:06:08.146Z,18.05
2024-02-23T10:08:35.375Z,19.33
2024-02-23T10:11:05.685Z,19.17
2024-02-23T10:13:32.862Z,19.42
2024-02-23T10:16:10.696Z,18.45
2024-02-23T10:18:42.504Z,19.35
2024-02-23T10:21:10.014Z,19.48
2024-02-23T10:23:38.438Z,19.30
2024-02-23T10:26:07.915Z,19.23
2024-02-23T10:28:36.374Z,18.63
2024-02-23T10:31:03.782Z,18.07
2024-02-23T10:33:32.458Z,19.05
2024-02-23T10:36:02.150Z,17.07
2024-02-23T10:38:32.546Z,17.27
2024-02-23T10:41:03.109Z,15.87
2024-02-23T10:43:48.501Z,14.80
2024-02-23T10:46:16.827Z,14.80
2024-02-23T10:48:46.399Z,15.02
2024-02-23T10:51:20.239Z,15.00
2024-02-23T10:53:50.151Z,14.60
2024-02-23T10:56:17.612Z,14.65
2024-02-23T10:58:44.857Z,14.57
2024-02-23T11:01:13.140Z,14.00
2024-02-23T11:03:44.266Z,12.23
2024-02-23T11:06:11.567Z,11.70
2024-02-23T11:08:39.286Z,10.68
2024-02-23T11:11:13.659Z,11.68
2024-02-23T11:13:42.025Z,12.88
2024-02-23T11:16:12.865Z,12.73
2024-02-23T11:18:43.674Z,11.15
2024-02-23T11:21:12.024Z,11.88
2024-02-23T11:23:45.818Z,11.93
2024-02-23T11:26:15.986Z,13.98
2024-02-23T11:28:51.204Z,12.02
2024-02-23T11:31:21.869Z,9.88
2024-02-23T11:33:53.551Z,12.10
2024-02-23T11:36:31.349Z,9.05
2024-02-23T11:39:00.089Z,7.82
2024-02-23T11:41:28.689Z,6.95
2024-02-23T11:43:57.258Z,9.80
2024-02-23T11:46:24.489Z,6.13
2024-02-23T11:48:56.042Z,4.47
2024-02-23T11:51:24.709Z,8.38
2024-02-23T11:53:52.059Z,5.43
2024-02-23T11:56:21.092Z,4.60
2024-02-23T11:58:48.437Z,8.77
2024-02-23T12:01:15.614Z,5.50
2024-02-23T12:03:45.564Z,7.45
2024-02-23T12:06:13.959Z,5.40
2024-02-23T12:08:41.229Z,9.63
2024-02-23T12:11:10.420Z,7.60
2024-02-23T12:13:38.200Z,4.75
2024-02-23T12:16:06.204Z,4.80
2024-02-23T12:18:36.987Z,6.07
2024-02-23T12:21:07.668Z,6.47
2024-02-23T12:23:42.793Z,4.10
2024-02-23T12:26:10.612Z,5.15
2024-02-23T12:28:38.335Z,2.72
2024-02-23T12:31:06.291Z,6.85
2024-02-23T12:33:35.740Z,3.20
2024-02-23T12:36:04.653Z,7.05
2024-02-23T12:38:32.489Z,3.22
2024-02-23T12:41:01.311Z,5.20
2024-02-23T12:43:29.022Z,4.65
2024-02-23T12:45:56.750Z,3.55
2024-02-23T12:48:23.967Z,4.10
2024-02-23T12:50:51.938Z,4.53
2024-02-23T12:53:39.510Z,3.70
2024-02-23T12:56:09.546Z,4.35
2024-02-23T12:58:37.731Z,6.28
2024-02-23T13:01:05.343Z,6.40
2024-02-23T13:03:33.399Z,5.50
2024-02-23T13:06:00.597Z,6.15
2024-02-23T13:08:28.512Z,3.65
2024-02-23T13:10:56.371Z,7.13
2024-02-23T13:13:24.146Z,6.20
2024-02-23T13:15:52.363Z,5.57
2024-02-23T13:18:20.917Z,5.53
2024-02-23T13:20:48.492Z,4.05
2024-02-23T13:23:17.415Z,6.50
2024-02-23T13:25:46.052Z,8.97
2024-02-23T13:28:13.372Z,5.25
2024-02-23T13:30:40.677Z,3.95
2024-02-23T13:33:09.834Z,6.88
2024-02-23T13:35:37.286Z,4.97
2024-02-23T13:38:04.812Z,6.68
2024-02-23T13:40:33.201Z,3.22
2024-02-23T13:43:00.826Z,3.60
2024-02-23T13:45:28.169Z,5.65
2024-02-23T13:48:02.761Z,5.78
2024-02-23T13:50:30.814Z,6.80
2024-02-23T13:52:58.941Z,8.77
2024-02-23T13:55:26.272Z,6.38
2024-02-23T13:57:53.454Z,7.00
2024-02-23T14:00:22.045Z,3.92
2024-02-23T14:02:50.011Z,7.60
2024-02-23T14:05:20.072Z,5.32
2024-02-23T14:07:47.290Z,5.55
2024-02-23T14:10:15.311Z,6.43
2024-02-23T14:12:43.177Z,4.55
2024-02-23T14:15:11.916Z,6.57
2024-02-23T14:17:39.254Z,5.82
2024-02-23T14:20:08.206Z,7.43
2024-02-23T14:22:35.644Z,7.60
2024-02-23T14:25:03.210Z,6.57
2024-02-23T14:27:31.902Z,6.40
2024-02-23T14:29:59.573Z,5.13
2024-02-23T14:32:27.176Z,8.05
2024-02-23T14:34:54.381Z,8.48
2024-02-23T14:37:21.850Z,9.80
2024-02-23T14:39:50.901Z,6.30
2024-02-23T14:42:18.111Z,7.47
2024-02-23T14:44:45.736Z,8.15
2024-02-23T14:47:14.691Z,8.25
2024-02-23T14:49:42.087Z,6.03
2024-02-23T14:52:09.699Z,6.53
2024-02-23T14:54:37.196Z,7.55
2024-02-23T14:57:05.147Z,7.15
2024-02-23T14:59:32.670Z,6.72
2024-02-23T15:01:59.866Z,7.20
2024-02-23T15:04:27.617Z,7.57
2024-02-23T15:06:55.337Z,6.63
2024-02-23T15:09:22.856Z,6.30
2024-02-23T15:11:50.339Z,6.93
2024-02-23T15:14:18.182Z,8.17
2024-02-23T15:16:45.597Z,7.45
2024-02-23T15:19:13.637Z,7.47
2024-02-23T15:21:42.350Z,7.07
2024-02-23T15:24:10.062Z,7.43
2024-02-23T15:26:37.797Z,8.25
2024-02-23T15:29:05.483Z,8.18
2024-02-23T15:31:32.703Z,19.88
2024-02-23T15:34:01.750Z,10.60
2024-02-23T15:36:29.204Z,10.18
2024-02-23T15:39:03.776Z,10.80
2024-02-23T15:41:33.329Z,10.87
2024-02-23T15:44:00.667Z,14.97
2024-02-23T15:46:28.772Z,12.50
2024-02-23T15:48:56.424Z,11.50
2024-02-23T15:51:34.334Z,11.55
2024-02-23T15:54:11.364Z,11.13
2024-02-23T15:56:39.990Z,11.43
2024-02-23T15:59:09.782Z,12.18
2024-02-23T16:01:37.854Z,13.65
2024-02-23T16:04:06.266Z,13.43
2024-02-23T16:06:36.570Z,13.07
2024-02-23T16:09:08.263Z,12.95
2024-02-23T16:11:36.461Z,13.50
2024-02-23T16:14:05.571Z,13.95
2024-02-23T16:16:33.264Z,12.10
2024-02-23T16:19:00.766Z,13.13
2024-02-23T16:21:27.941Z,15.05
2024-02-23T16:23:55.167Z,15.13
2024-02-23T16:26:22.282Z,14.35
2024-02-23T16:28:51.868Z,14.13
2024-02-23T16:31:19.024Z,15.20
2024-02-23T16:33:46.185Z,21.88
2024-02-23T16:36:16.002Z,19.83
2024-02-23T16:38:43.322Z,19.83
2024-02-23T16:41:11.065Z,21.80
2024-02-23T16:43:38.176Z,20.27
2024-02-23T16:46:05.300Z,19.67
2024-02-23T16:48:32.433Z,23.00
2024-02-23T16:51:01.077Z,24.10
2024-02-23T16:53:28.418Z,25.73
2024-02-23T16:55:57.132Z,29.02
2024-02-23T16:58:26.357Z,29.13
2024-02-23T17:00:56.846Z,24.00
2024-02-23T17:03:24.125Z,24.25
2024-02-23T17:05:52.138Z,24.98
2024-02-23T17:08:20.605Z,24.67
2024-02-23T17:10:48.072Z,27.10
2024-02-23T17:13:15.244Z,25.50
2024-02-23T17:15:43.181Z,24.92
2024-02-23T17:18:14.501Z,26.25
2024-02-23T17:20:41.813Z,28.05
2024-02-23T17:23:09.604Z,28.83
2024-02-23T17:25:36.790Z,28.60
2024-02-23T17:28:04.305Z,25.38
2024-02-23T17:30:31.883Z,25.93
2024-02-23T17:32:59.045Z,21.45
2024-02-23T17:35:26.820Z,17.65
2024-02-23T17:37:53.935Z,17.23
2024-02-23T17:40:21.071Z,16.98
2024-02-23T17:42:48.265Z,14.15
2024-02-23T17:45:15.373Z,14.55
2024-02-23T17:47:42.654Z,17.48
2024-02-23T17:50:11.114Z,17.90
2024-02-23T17:52:38.402Z,21.23
2024-02-23T17:55:06.037Z,23.33
2024-02-23T17:57:33.195Z,24.90
2024-02-23T18:00:00.982Z,25.60
2024-02-23T18:02:28.131Z,24.77
2024-02-23T18:04:55.324Z,24.10
2024-02-23T18:07:22.421Z,28.75
2024-02-23T18:09:49.753Z,31.27
2024-02-23T18:12:17.069Z,31.90
2024-02-23T18:14:44.328Z,29.42
2024-02-23T18:17:11.722Z,27.00
2024-02-23T18:19:42.904Z,26.80
2024-02-23T18:22:11.156Z,25.77
2024-02-23T18:24:38.324Z,24.10
2024-02-23T18:27:05.728Z,22.20
2024-02-23T18:29:33.125Z,20.50
2024-02-23T18:32:00.326Z,16.67
2024-02-23T18:34:27.568Z,15.70
2024-02-23T18:36:54.769Z,14.85
2024-02-23T18:39:21.835Z,14.80
2024-02-23T18:41:49.038Z,14.48
2024-02-23T18:44:16.233Z,14.63
2024-02-23T18:46:43.403Z,14.88
2024-02-23T18:49:10.547Z,14.48
2024-02-23T18:51:37.790Z,13.02
2024-02-23T18:54:05.262Z,13.23
2024-02-23T18:56:33.272Z,13.55
2024-02-23T18:59:00.473Z,13.88
2024-02-23T19:01:28.355Z,12.68
2024-02-23T19:03:55.758Z,12.20
2024-02-23T19:06:23.381Z,12.70
2024-02-23T19:08:50.853Z,12.73
2024-02-23T19:11:18.605Z,12.38
2024-02-23T19:13:50.432Z,13.43
2024-02-23T19:16:20.000Z,13.03
2024-02-23T19:18:47.339Z,13.25
2024-02-23T19:21:17.294Z,14.10
2024-02-23T19:23:47.453Z,14.85
2024-02-23T19:26:15.626Z,14.15
2024-02-23T19:28:42.690Z,14.43
2024-02-23T19:31:10.403Z,14.60
2024-02-23T19:33:38.171Z,13.57
2024-02-23T19:36:06.379Z,14.52
2024-02-23T19:38:33.523Z,14.15
2024-02-23T19:41:01.678Z,14.05
2024-02-23T19:43:30.555Z,15.10
2024-02-23T19:46:07.400Z,15.38
2024-02-23T19:48:40.534Z,14.02
2024-02-23T19:51:08.909Z,14.90
2024-02-23T19:53:36.114Z,14.93
2024-02-23T19:56:03.510Z,15.40
2024-02-23T19:58:30.598Z,20.48
2024-02-23T20:00:57.671Z,19.02
2024-02-23T20:03:25.629Z,20.10
2024-02-23T20:05:53.185Z,17.48
2024-02-23T20:08:21.124Z,18.25
2024-02-23T20:10:48.586Z,20.30
2024-02-23T20:13:16.103Z,20.20
2024-02-23T20:15:43.477Z,24.27
2024-02-23T20:18:11.319Z,26.10
2024-02-23T20:20:39.946Z,26.73
2024-02-23T20:23:07.681Z,22.88
2024-02-23T20:25:36.937Z,17.92
2024-02-23T20:28:04.387Z,20.13
2024-02-23T20:30:31.434Z,30.98
2024-02-23T20:33:00.680Z,27.50
2024-02-23T20:35:28.782Z,35.13
2024-02-23T20:37:59.426Z,31.23
2024-02-23T20:40:27.227Z,34.65
2024-02-23T20:42:54.299Z,29.77
2024-02-23T20:45:23.601Z,30.48
2024-02-23T20:47:50.822Z,33.33
2024-02-23T20:50:18.335Z,30.98
2024-02-23T20:52:45.839Z,25.45
2024-02-23T20:55:13.319Z,26.85
2024-02-23T20:57:41.133Z,27.97
2024-02-23T21:00:09.366Z,23.70
2024-02-23T21:02:38.199Z,20.65
2024-02-23T21:05:06.090Z,22.55
2024-02-23T21:07:33.675Z,22.25
2024-02-23T21:10:00.922Z,22.52
2024-02-23T21:12:28.543Z,21.50
2024-02-23T21:14:56.338Z,20.33
2024-02-23T21:17:23.721Z,20.07
2024-02-23T21:19:51.019Z,18.15
2024-02-23T21:22:18.731Z,18.75
2024-02-23T21:24:48.790Z,16.27
2024-02-23T21:27:16.430Z,13.57
2024-02-23T21:29:46.718Z,11.45
2024-02-23T21:32:15.036Z,9.55
2024-02-23T21:34:42.247Z,9.38
2024-02-23T21:37:10.111Z,9.15
2024-02-23T21:39:37.317Z,7.60
2024-02-23T21:42:04.826Z,8.40
2024-02-23T21:44:31.957Z,8.02
2024-02-23T21:46:59.084Z,8.38
2024-02-23T21:49:26.277Z,8.00
2024-02-23T21:51:53.342Z,8.98
2024-02-23T21:54:21.350Z,8.35
2024-02-23T21:56:48.525Z,7.95
2024-02-23T21:59:15.784Z,9.30
2024-02-23T22:01:42.978Z,9.77
2024-02-23T22:04:10.447Z,9.82
2024-02-23T22:06:37.969Z,10.95
2024-02-23T22:09:05.155Z,11.73
2024-02-23T22:11:32.808Z,12.00
2024-02-23T22:13:59.884Z,11.10
2024-02-23T22:16:29.003Z,11.07
2024-02-23T22:18:56.711Z,12.43
2024-02-23T22:21:24.266Z,11.05
2024-02-23T22:23:51.582Z,11.10
2024-02-23T22:26:19.466Z,11.45
2024-02-23T22:28:46.556Z,9.80
2024-02-23T22:31:14.103Z,9.50
2024-02-23T22:33:41.564Z,12.40
2024-02-23T22:36:09.480Z,11.65
2024-02-23T22:38:36.985Z,11.82
2024-02-23T22:41:04.829Z,11.18
2024-02-23T22:43:31.996Z,11.02
2024-02-23T22:46:02.529Z,11.20
2024-02-23T22:48:30.143Z,11.40
2024-02-23T22:50:57.334Z,10.88
2024-02-23T22:53:25.154Z,9.70
2024-02-23T22:55:52.326Z,9.82
2024-02-23T22:58:19.662Z,9.43
2024-02-23T23:00:48.724Z,9.17
2024-02-23T23:03:17.468Z,9.30
2024-02-23T23:05:44.868Z,9.00
2024-02-23T23:08:12.288Z,10.80
2024-02-23T23:10:39.545Z,9.60
2024-02-23T23:13:06.739Z,7.70
2024-02-23T23:15:33.929Z,8.43
2024-02-23T23:18:01.297Z,8.40
2024-02-23T23:20:28.632Z,7.35
2024-02-23T23:22:56.440Z,6.28
2024-02-23T23:25:23.580Z,5.03
2024-02-23T23:27:53.338Z,4.93
2024-02-23T23:30:20.692Z,5.25
2024-02-23T23:32:49.035Z,4.82
2024-02-23T23:35:16.152Z,4.70
2024-02-23T23:37:44.040Z,4.97
2024-02-23T23:40:11.427Z,4.53
2024-02-23T23:42:39.609Z,4.10
2024-02-23T23:45:07.516Z,5.15
2024-02-23T23:47:34.944Z,5.47
2024-02-23T23:50:02.148Z,5.47
2024-02-23T23:52:31.707Z,5.30
2024-02-23T23:54:59.102Z,5.13
2024-02-23T23:57:26.195Z,5.78
2024-02-23T23:59:53.605Z,5.97
